createdAt,value
2019-03-29T00:00:33.178Z,4.03
2019-03-29T00:03:03.110Z,3.40
2019-03-29T00:05:33.027Z,4.40
2019-03-29T00:08:03.304Z,4.30
2019-03-29T00:10:33.323Z,4.27
2019-03-29T00:13:03.556Z,4.40
2019-03-29T00:15:34.123Z,3.80
2019-03-29T00:18:04.247Z,3.77
2019-03-29T00:20:34.182Z,4.13
2019-03-29T00:23:04.216Z,4.30
2019-03-29T00:25:34.459Z,3.70
2019-03-29T00:28:04.380Z,4.70
2019-03-29T00:30:34.402Z,4.03
2019-03-29T00:33:04.436Z,3.77
2019-03-29T00:35:34.460Z,3.37
2019-03-29T00:38:04.851Z,4.03
2019-03-29T00:40:35.266Z,3.93
2019-03-29T00:43:05.317Z,3.20
2019-03-29T00:45:35.348Z,4.57
2019-03-29T00:48:05.464Z,3.23
2019-03-29T00:50:35.401Z,3.73
2019-03-29T00:53:05.360Z,3.40
2019-03-29T00:55:35.500Z,4.50
2019-03-29T00:58:05.416Z,3.93
2019-03-29T01:00:35.367Z,4.23
2019-03-29T01:03:05.363Z,4.63
2019-03-29T01:05:35.577Z,4.30
2019-03-29T01:08:08.019Z,4.40
2019-03-29T01:10:37.648Z,4.77
2019-03-29T01:13:07.779Z,3.90
2019-03-29T01:15:37.889Z,4.33
2019-03-29T01:18:07.845Z,4.63
2019-03-29T01:20:37.758Z,4.93
2019-03-29T01:23:07.985Z,4.83
2019-03-29T01:25:37.914Z,5.00
2019-03-29T01:28:07.941Z,5.33
2019-03-29T01:30:37.939Z,5.33
2019-03-29T01:33:07.920Z,5.90
2019-03-29T01:35:37.949Z,5.60
2019-03-29T01:38:21.057Z,4.80
2019-03-29T01:40:39.748Z,5.53
2019-03-29T01:43:10.097Z,5.27
2019-03-29T01:45:40.149Z,4.70
2019-03-29T01:48:10.110Z,5.60
2019-03-29T01:50:40.233Z,5.00
2019-03-29T01:53:10.184Z,4.97
2019-03-29T01:55:40.319Z,4.90
2019-03-29T01:58:10.473Z,4.50
2019-03-29T02:00:40.865Z,5.10
2019-03-29T02:03:10.908Z,5.17
2019-03-29T02:05:40.929Z,5.07
2019-03-29T02:08:10.863Z,5.50
2019-03-29T02:10:41.038Z,5.20
2019-03-29T02:13:11.167Z,5.30
2019-03-29T02:15:41.301Z,5.73
2019-03-29T02:18:11.223Z,5.27
2019-03-29T02:20:41.252Z,5.47
2019-03-29T02:23:11.441Z,5.90
2019-03-29T02:25:42.456Z,5.17
2019-03-29T02:28:13.014Z,6.17
2019-03-29T02:30:42.929Z,5.93
2019-03-29T02:33:12.984Z,6.50
2019-03-29T02:35:42.989Z,6.33
2019-03-29T02:38:13.212Z,5.23
2019-03-29T02:40:43.217Z,5.87
2019-03-29T02:43:13.378Z,5.37
2019-03-29T02:45:43.438Z,5.40
2019-03-29T02:48:13.398Z,5.40
2019-03-29T02:50:43.415Z,6.60
2019-03-29T02:53:13.352Z,6.13
2019-03-29T02:55:43.358Z,4.40
2019-03-29T02:58:13.347Z,5.80
2019-03-29T03:00:43.496Z,5.87
2019-03-29T03:03:13.686Z,4.97
2019-03-29T03:05:43.640Z,5.13
2019-03-29T03:08:13.584Z,5.70
2019-03-29T03:10:43.588Z,5.93
2019-03-29T03:13:13.509Z,5.77
2019-03-29T03:15:43.467Z,6.53
2019-03-29T03:18:13.674Z,6.53
2019-03-29T03:20:43.609Z,5.60
2019-03-29T03:23:13.648Z,6.17
2019-03-29T03:25:43.667Z,5.27
2019-03-29T03:28:13.796Z,5.60
2019-03-29T03:30:43.923Z,4.83
2019-03-29T03:33:14.286Z,5.20
2019-03-29T03:35:44.240Z,5.37
2019-03-29T03:38:14.664Z,4.80
2019-03-29T03:40:44.708Z,5.40
2019-03-29T03:43:14.631Z,6.13
2019-03-29T03:45:44.683Z,6.43
2019-03-29T03:48:14.710Z,6.10
2019-03-29T03:50:45.129Z,5.90
2019-03-29T03:53:15.158Z,6.27
2019-03-29T03:55:45.266Z,5.67
2019-03-29T03:58:16.821Z,6.53
2019-03-29T04:00:58.264Z,6.93
2019-03-29T04:03:28.878Z,7.40
2019-03-29T04:05:59.521Z,6.37
2019-03-29T04:08:29.619Z,6.97
2019-03-29T04:10:59.651Z,7.50
2019-03-29T04:13:30.200Z,6.57
2019-03-29T04:16:00.177Z,7.10
2019-03-29T04:18:30.297Z,8.00
2019-03-29T04:21:00.457Z,6.73
2019-03-29T04:23:30.942Z,6.50
2019-03-29T04:26:00.977Z,6.63
2019-03-29T04:28:30.981Z,7.10
2019-03-29T04:31:01.230Z,7.60
2019-03-29T04:33:31.259Z,7.90
2019-03-29T04:36:01.234Z,8.50
2019-03-29T04:38:31.378Z,8.00
2019-03-29T04:41:01.382Z,8.87
2019-03-29T04:43:31.336Z,8.63
2019-03-29T04:46:01.320Z,8.23
2019-03-29T04:48:31.434Z,7.80
2019-03-29T04:51:01.438Z,8.60
2019-03-29T04:53:31.374Z,7.80
2019-03-29T04:56:01.337Z,7.63
2019-03-29T04:58:31.409Z,8.50
2019-03-29T05:01:01.341Z,8.97
2019-03-29T05:03:31.243Z,10.00
2019-03-29T05:06:01.194Z,8.00
2019-03-29T05:08:31.220Z,8.80
2019-03-29T05:11:01.345Z,8.40
2019-03-29T05:13:31.424Z,8.20
2019-03-29T05:16:01.348Z,7.87
2019-03-29T05:18:31.365Z,7.03
2019-03-29T05:21:01.346Z,8.20
2019-03-29T05:23:31.400Z,9.30
2019-03-29T05:26:01.421Z,8.40
2019-03-29T05:28:31.412Z,7.80
2019-03-29T05:31:01.340Z,7.93
2019-03-29T05:33:31.576Z,8.83
2019-03-29T05:36:01.622Z,8.07
2019-03-29T05:38:31.688Z,9.20
2019-03-29T05:41:01.696Z,7.77
2019-03-29T05:43:31.943Z,7.83
2019-03-29T05:46:01.940Z,9.90
2019-03-29T05:48:32.073Z,9.57
2019-03-29T05:51:02.181Z,10.20
2019-03-29T05:53:32.121Z,8.60
2019-03-29T05:56:02.042Z,9.57
2019-03-29T05:58:32.042Z,7.77
2019-03-29T06:01:02.103Z,8.53
2019-03-29T06:03:32.062Z,9.03
2019-03-29T06:06:02.202Z,9.00
2019-03-29T06:08:32.112Z,9.50
2019-03-29T06:11:02.076Z,7.83
2019-03-29T06:13:32.201Z,10.20
2019-03-29T06:16:02.114Z,9.10
2019-03-29T06:18:32.100Z,9.40
2019-03-29T06:21:02.188Z,9.83
2019-03-29T06:23:32.172Z,8.80
2019-03-29T06:26:02.230Z,9.27
2019-03-29T06:28:32.738Z,9.57
2019-03-29T06:31:02.686Z,9.57
2019-03-29T06:33:32.747Z,10.30
2019-03-29T06:36:04.715Z,9.43
2019-03-29T06:38:36.872Z,9.80
2019-03-29T06:41:07.123Z,8.93
2019-03-29T06:43:37.098Z,9.80
2019-03-29T06:46:07.397Z,11.20
2019-03-29T06:48:37.474Z,10.30
2019-03-29T06:51:07.445Z,11.27
2019-03-29T06:53:37.480Z,10.20
2019-03-29T06:56:07.550Z,9.53
2019-03-29T06:58:37.675Z,10.07
2019-03-29T07:01:07.893Z,9.70
2019-03-29T07:03:38.127Z,10.17
2019-03-29T07:06:08.358Z,9.33
2019-03-29T07:08:38.465Z,10.60
2019-03-29T07:11:17.183Z,9.47
2019-03-29T07:13:40.271Z,9.37
2019-03-29T07:16:10.464Z,9.30
2019-03-29T07:18:40.490Z,8.90
2019-03-29T07:21:20.939Z,8.87
2019-03-29T07:23:42.293Z,9.90
2019-03-29T07:26:12.299Z,8.47
2019-03-29T07:28:43.204Z,7.93
2019-03-29T07:31:13.230Z,7.10
2019-03-29T07:33:43.399Z,7.27
2019-03-29T07:36:13.321Z,6.77
2019-03-29T07:38:43.240Z,7.07
2019-03-29T07:41:13.323Z,6.67
2019-03-29T07:43:43.274Z,6.53
2019-03-29T07:46:13.221Z,6.50
2019-03-29T07:48:43.146Z,7.30
2019-03-29T07:51:13.224Z,8.77
2019-03-29T07:53:44.979Z,7.53
2019-03-29T07:56:14.866Z,7.13
2019-03-29T07:58:44.986Z,8.10
2019-03-29T08:01:14.952Z,6.20
2019-03-29T08:03:45.030Z,5.97
2019-03-29T08:06:15.069Z,5.87
2019-03-29T08:08:45.097Z,6.03
2019-03-29T08:11:25.424Z,6.20
2019-03-29T08:13:46.827Z,5.83
2019-03-29T08:16:16.936Z,6.20
2019-03-29T08:18:46.894Z,5.50
2019-03-29T08:21:16.920Z,6.07
2019-03-29T08:23:47.682Z,5.83
2019-03-29T08:26:17.960Z,5.70
2019-03-29T08:28:47.905Z,4.83
2019-03-29T08:31:17.939Z,5.43
2019-03-29T08:33:47.917Z,5.53
2019-03-29T08:36:18.148Z,5.60
2019-03-29T08:38:48.196Z,4.80
2019-03-29T08:41:18.143Z,4.20
2019-03-29T08:43:48.275Z,4.73
2019-03-29T08:46:18.312Z,5.17
2019-03-29T08:48:48.403Z,5.40
2019-03-29T08:51:18.445Z,3.90
2019-03-29T08:53:48.469Z,4.70
2019-03-29T08:56:18.404Z,4.47
2019-03-29T08:58:48.339Z,4.00
2019-03-29T09:01:19.498Z,3.67
2019-03-29T09:04:01.469Z,4.47
2019-03-29T09:06:21.661Z,4.00
2019-03-29T09:08:52.717Z,3.90
2019-03-29T09:11:22.686Z,4.10
2019-03-29T09:13:52.737Z,3.00
2019-03-29T09:16:22.658Z,3.40
2019-03-29T09:18:52.730Z,3.23
2019-03-29T09:21:22.764Z,2.67
2019-03-29T09:23:52.742Z,2.57
2019-03-29T09:26:22.845Z,2.93
2019-03-29T09:28:52.936Z,3.60
2019-03-29T09:31:22.859Z,2.97
2019-03-29T09:33:53.317Z,3.27
2019-03-29T09:36:23.702Z,2.80
2019-03-29T09:38:53.724Z,3.13
2019-03-29T09:41:23.815Z,3.50
2019-03-29T09:43:54.637Z,3.33
2019-03-29T09:46:24.790Z,3.77
2019-03-29T09:48:54.733Z,3.00
2019-03-29T09:51:24.772Z,3.87
2019-03-29T09:53:57.768Z,4.00
2019-03-29T09:56:37.992Z,3.00
2019-03-29T09:58:58.203Z,4.77
2019-03-29T10:01:28.388Z,4.20
2019-03-29T10:03:58.468Z,3.67
2019-03-29T10:06:28.596Z,3.50
2019-03-29T10:08:58.714Z,2.87
2019-03-29T10:11:28.751Z,4.00
2019-03-29T10:13:59.130Z,3.80
2019-03-29T10:16:29.110Z,4.00
2019-03-29T10:18:59.036Z,4.23
2019-03-29T10:21:29.052Z,3.73
2019-03-29T10:23:59.014Z,4.27
2019-03-29T10:26:28.937Z,3.20
2019-03-29T10:28:58.857Z,4.40
2019-03-29T10:31:32.436Z,4.10
2019-03-29T10:34:00.534Z,4.20
2019-03-29T10:36:31.384Z,4.20
2019-03-29T10:39:01.826Z,4.20
2019-03-29T10:41:34.573Z,3.90
2019-03-29T10:44:04.418Z,5.03
2019-03-29T10:46:34.424Z,4.20
2019-03-29T10:49:04.408Z,3.43
2019-03-29T10:51:34.450Z,4.03
2019-03-29T10:54:04.743Z,3.83
2019-03-29T10:56:34.874Z,3.80
2019-03-29T10:59:04.932Z,3.57
2019-03-29T11:01:34.997Z,3.80
2019-03-29T11:04:04.948Z,4.07
2019-03-29T11:06:35.120Z,3.73
2019-03-29T11:09:07.290Z,3.70
2019-03-29T11:11:37.544Z,3.53
2019-03-29T11:14:08.068Z,3.73
2019-03-29T11:16:37.999Z,3.93
2019-03-29T11:19:07.926Z,3.70
2019-03-29T11:21:37.862Z,3.27
2019-03-29T11:24:09.354Z,4.17
2019-03-29T11:26:39.528Z,4.03
2019-03-29T11:29:09.461Z,4.20
2019-03-29T11:31:39.511Z,4.23
2019-03-29T11:34:09.515Z,4.57
2019-03-29T11:36:39.418Z,4.03
2019-03-29T11:39:10.039Z,3.80
2019-03-29T11:41:40.016Z,3.93
2019-03-29T11:44:10.057Z,3.70
2019-03-29T11:46:40.359Z,4.37
2019-03-29T11:49:10.591Z,4.80
2019-03-29T11:51:40.696Z,4.20
2019-03-29T11:54:10.837Z,4.13
2019-03-29T11:56:40.768Z,3.97
2019-03-29T11:59:10.744Z,3.87
2019-03-29T12:01:40.696Z,4.40
2019-03-29T12:04:10.633Z,3.83
2019-03-29T12:06:40.662Z,4.10
2019-03-29T12:09:10.922Z,4.47
2019-03-29T12:11:40.968Z,3.87
2019-03-29T12:14:11.177Z,3.97
2019-03-29T12:16:41.097Z,4.53
2019-03-29T12:19:09.907Z,4.17
2019-03-29T12:21:39.839Z,3.60
2019-03-29T12:24:09.883Z,4.00
2019-03-29T12:26:39.805Z,3.63
2019-03-29T12:29:09.860Z,4.00
2019-03-29T12:31:39.855Z,4.20
2019-03-29T12:34:10.154Z,4.07
2019-03-29T12:36:40.092Z,4.77
2019-03-29T12:39:10.062Z,4.30
2019-03-29T12:41:40.117Z,5.00
2019-03-29T12:44:10.101Z,5.13
2019-03-29T12:46:40.219Z,4.37
2019-03-29T12:49:10.383Z,4.20
2019-03-29T12:51:40.365Z,4.00
2019-03-29T12:54:12.147Z,5.00
2019-03-29T12:56:42.292Z,5.30
2019-03-29T12:59:12.433Z,3.50
2019-03-29T13:01:42.427Z,4.60
2019-03-29T13:04:12.389Z,4.27
2019-03-29T13:06:42.360Z,5.10
2019-03-29T13:09:12.492Z,4.00
2019-03-29T13:11:42.404Z,3.77
2019-03-29T13:14:12.319Z,4.33
2019-03-29T13:16:42.761Z,3.87
2019-03-29T13:19:12.665Z,4.30
2019-03-29T13:21:42.604Z,3.57
2019-03-29T13:24:15.737Z,3.87
2019-03-29T13:26:44.405Z,4.00
2019-03-29T13:29:14.382Z,4.50
2019-03-29T13:31:44.409Z,4.40
2019-03-29T13:34:14.756Z,4.13
2019-03-29T13:36:45.014Z,3.33
2019-03-29T13:39:15.365Z,3.57
2019-03-29T13:41:45.389Z,4.30
2019-03-29T13:44:23.686Z,4.40
2019-03-29T13:46:47.646Z,4.40
2019-03-29T13:49:17.560Z,4.53
2019-03-29T13:51:47.525Z,3.90
2019-03-29T13:54:17.607Z,3.87
2019-03-29T13:56:47.652Z,3.70
2019-03-29T13:59:17.554Z,3.87
2019-03-29T14:01:47.585Z,4.07
2019-03-29T14:04:17.584Z,3.53
2019-03-29T14:06:47.619Z,3.90
2019-03-29T14:09:17.620Z,3.83
2019-03-29T14:11:47.734Z,3.17
2019-03-29T14:14:17.803Z,3.63
2019-03-29T14:16:47.693Z,3.60
2019-03-29T14:19:17.890Z,3.80
2019-03-29T14:21:48.065Z,3.60
2019-03-29T14:24:18.019Z,4.33
2019-03-29T14:26:48.086Z,3.97
2019-03-29T14:29:18.178Z,4.53
2019-03-29T14:31:48.924Z,4.60
2019-03-29T14:34:18.923Z,4.40
2019-03-29T14:36:49.076Z,4.60
2019-03-29T14:39:19.056Z,4.93
2019-03-29T14:41:49.059Z,3.80
2019-03-29T14:44:19.042Z,4.70
2019-03-29T14:46:49.088Z,5.13
2019-03-29T14:49:19.154Z,4.20
2019-03-29T14:51:49.186Z,4.90
2019-03-29T14:54:19.203Z,4.93
2019-03-29T14:56:49.368Z,3.70
2019-03-29T14:59:19.586Z,4.20
2019-03-29T15:01:49.845Z,4.83
2019-03-29T15:04:20.063Z,4.70
2019-03-29T15:06:50.192Z,4.70
2019-03-29T15:09:20.688Z,4.77
2019-03-29T15:11:50.715Z,4.30
2019-03-29T15:14:23.196Z,5.17
2019-03-29T15:16:52.612Z,5.00
2019-03-29T15:19:22.742Z,4.63
2019-03-29T15:21:53.243Z,4.27
2019-03-29T15:24:23.393Z,5.73
2019-03-29T15:26:53.380Z,4.33
2019-03-29T15:29:23.592Z,4.70
2019-03-29T15:31:53.528Z,4.10
2019-03-29T15:34:23.579Z,4.73
2019-03-29T15:36:53.532Z,3.87
2019-03-29T15:39:23.698Z,4.33
2019-03-29T15:41:54.748Z,4.90
2019-03-29T15:44:27.049Z,8.30
2019-03-29T15:46:59.063Z,6.00
2019-03-29T15:49:31.065Z,4.37
2019-03-29T15:52:02.435Z,4.27
2019-03-29T15:54:33.807Z,5.03
2019-03-29T15:57:05.671Z,4.70
2019-03-29T15:59:37.305Z,4.70
2019-03-29T16:02:08.776Z,3.93
2019-03-29T16:04:40.255Z,4.30
2019-03-29T16:07:11.877Z,4.20
2019-03-29T16:09:43.512Z,3.93
2019-03-29T16:12:17.805Z,3.60
2019-03-29T16:14:50.715Z,5.20
2019-03-29T16:17:21.495Z,5.20
2019-03-29T16:19:51.837Z,5.07
2019-03-29T16:22:21.981Z,5.00
2019-03-29T16:24:52.269Z,5.00
2019-03-29T16:27:24.918Z,4.53
2019-03-29T16:29:54.084Z,4.17
2019-03-29T16:32:24.136Z,4.47
2019-03-29T16:34:54.694Z,4.40
2019-03-29T16:37:24.674Z,4.60
2019-03-29T16:39:54.639Z,3.57
2019-03-29T16:42:24.697Z,5.43
2019-03-29T16:44:54.790Z,4.30
2019-03-29T16:47:24.937Z,5.27
2019-03-29T16:49:55.062Z,6.83
2019-03-29T16:52:25.433Z,4.73
2019-03-29T16:54:55.576Z,3.97
2019-03-29T16:57:25.746Z,3.67
2019-03-29T16:59:55.723Z,4.27
2019-03-29T17:02:25.907Z,3.97
2019-03-29T17:04:55.837Z,3.53
2019-03-29T17:07:25.785Z,3.20
2019-03-29T17:09:55.785Z,4.27
2019-03-29T17:12:25.736Z,3.90
2019-03-29T17:14:55.869Z,4.43
2019-03-29T17:17:25.895Z,3.60
2019-03-29T17:19:56.131Z,4.30
2019-03-29T17:22:26.105Z,3.97
2019-03-29T17:24:57.384Z,5.13
2019-03-29T17:27:28.322Z,3.70
2019-03-29T17:29:58.234Z,4.07
2019-03-29T17:32:28.247Z,4.47
2019-03-29T17:34:58.328Z,5.70
2019-03-29T17:37:28.431Z,4.00
2019-03-29T17:39:58.670Z,4.37
2019-03-29T17:42:28.663Z,5.00
2019-03-29T17:44:59.150Z,3.73
2019-03-29T17:47:29.134Z,3.13
2019-03-29T17:49:59.263Z,3.80
2019-03-29T17:52:29.354Z,3.47
2019-03-29T17:55:01.192Z,3.87
2019-03-29T17:57:31.255Z,3.17
2019-03-29T18:00:01.461Z,3.07
2019-03-29T18:02:31.661Z,4.17
2019-03-29T18:05:01.985Z,3.60
2019-03-29T18:07:31.937Z,3.47
2019-03-29T18:10:01.877Z,3.63
2019-03-29T18:12:32.140Z,4.20
2019-03-29T18:15:02.063Z,4.40
2019-03-29T18:17:32.092Z,3.13
2019-03-29T18:20:02.048Z,3.73
2019-03-29T18:22:32.423Z,3.03
2019-03-29T18:25:02.385Z,3.90
2019-03-29T18:27:32.592Z,2.33
2019-03-29T18:30:02.812Z,3.37
2019-03-29T18:32:33.424Z,3.40
2019-03-29T18:35:03.378Z,3.20
2019-03-29T18:37:33.960Z,3.23
2019-03-29T18:40:04.381Z,3.93
2019-03-29T18:42:34.767Z,3.47
2019-03-29T18:45:05.379Z,4.63
2019-03-29T18:47:35.605Z,3.50
2019-03-29T18:50:06.112Z,4.20
2019-03-29T18:52:36.076Z,3.43
2019-03-29T18:55:06.169Z,3.90
2019-03-29T18:57:36.767Z,4.00
2019-03-29T19:00:08.055Z,3.60
2019-03-29T19:02:38.604Z,3.20
2019-03-29T19:05:11.436Z,3.73
2019-03-29T19:07:41.373Z,4.30
2019-03-29T19:10:12.138Z,4.60
2019-03-29T19:12:42.324Z,3.63
2019-03-29T19:15:12.502Z,18.67
2019-03-29T19:17:42.569Z,20.30
2019-03-29T19:20:26.253Z,22.37
2019-03-29T19:22:44.564Z,11.90
2019-03-29T19:25:14.911Z,9.17
2019-03-29T19:27:45.133Z,7.30
2019-03-29T19:30:15.658Z,8.47
2019-03-29T19:32:45.706Z,7.40
2019-03-29T19:35:16.051Z,7.77
2019-03-29T19:37:46.194Z,8.60
2019-03-29T19:40:16.267Z,12.03
2019-03-29T19:42:46.292Z,10.87
2019-03-29T19:45:16.849Z,9.13
2019-03-29T19:47:46.762Z,7.07
2019-03-29T19:50:17.557Z,7.67
2019-03-29T19:52:47.904Z,6.83
2019-03-29T19:55:17.917Z,6.60
2019-03-29T19:57:47.789Z,6.80
2019-03-29T20:00:18.293Z,10.00
2019-03-29T20:02:48.637Z,5.33
2019-03-29T20:05:29.473Z,5.43
2019-03-29T20:07:59.529Z,8.00
2019-03-29T20:10:29.712Z,7.30
2019-03-29T20:12:59.768Z,6.63
2019-03-29T20:15:29.765Z,5.93
2019-03-29T20:17:59.793Z,6.13
2019-03-29T20:20:29.797Z,7.27
2019-03-29T20:22:59.945Z,6.30
2019-03-29T20:25:29.862Z,5.73
2019-03-29T20:27:59.845Z,5.40
2019-03-29T20:30:30.170Z,4.80
2019-03-29T20:33:00.203Z,5.67
2019-03-29T20:35:30.167Z,6.50
2019-03-29T20:38:00.432Z,7.77
2019-03-29T20:40:32.159Z,5.77
2019-03-29T20:43:02.313Z,9.63
2019-03-29T20:45:32.624Z,6.77
2019-03-29T20:48:02.586Z,4.90
2019-03-29T20:50:32.572Z,5.30
2019-03-29T20:53:02.611Z,4.33
2019-03-29T20:55:32.663Z,5.33
2019-03-29T20:58:02.714Z,5.57
2019-03-29T21:00:32.760Z,5.73
2019-03-29T21:03:02.880Z,5.77
2019-03-29T21:05:32.991Z,5.40
2019-03-29T21:08:03.685Z,5.13
2019-03-29T21:10:33.777Z,5.90
2019-03-29T21:13:07.095Z,5.60
2019-03-29T21:15:35.522Z,5.83
2019-03-29T21:18:05.495Z,6.57
2019-03-29T21:20:35.451Z,5.90
2019-03-29T21:23:05.385Z,6.43
2019-03-29T21:25:35.797Z,5.23
2019-03-29T21:28:05.931Z,6.63
2019-03-29T21:30:36.222Z,6.97
2019-03-29T21:33:06.369Z,7.20
2019-03-29T21:35:36.328Z,5.80
2019-03-29T21:38:06.512Z,7.20
2019-03-29T21:40:36.498Z,6.30
2019-03-29T21:43:06.796Z,6.60
2019-03-29T21:45:37.175Z,7.20
2019-03-29T21:48:27.419Z,7.10
2019-03-29T21:50:39.068Z,5.93
2019-03-29T21:53:09.175Z,8.40
2019-03-29T21:55:39.372Z,11.20
2019-03-29T21:58:09.303Z,7.83
2019-03-29T22:00:39.420Z,6.50
2019-03-29T22:03:09.480Z,8.30
2019-03-29T22:05:39.543Z,6.90
2019-03-29T22:08:09.606Z,5.90
2019-03-29T22:10:39.630Z,5.73
2019-03-29T22:13:10.002Z,6.13
2019-03-29T22:15:39.959Z,6.57
2019-03-29T22:18:09.909Z,6.83
2019-03-29T22:20:40.178Z,8.27
2019-03-29T22:23:10.412Z,7.20
2019-03-29T22:25:40.457Z,7.27
2019-03-29T22:28:10.436Z,7.67
2019-03-29T22:30:40.564Z,10.80
2019-03-29T22:33:10.501Z,9.77
2019-03-29T22:35:40.584Z,9.53
2019-03-29T22:38:10.617Z,8.87
2019-03-29T22:40:40.717Z,7.70
2019-03-29T22:43:10.968Z,6.63
2019-03-29T22:45:41.077Z,7.37
2019-03-29T22:48:11.211Z,8.13
2019-03-29T22:50:41.195Z,9.07
2019-03-29T22:53:11.141Z,7.57
2019-03-29T22:55:41.419Z,9.20
2019-03-29T22:58:11.328Z,7.60
2019-03-29T23:00:45.339Z,9.80
2019-03-29T23:03:15.877Z,6.60
2019-03-29T23:05:45.958Z,8.47
2019-03-29T23:08:15.988Z,9.87
2019-03-29T23:10:46.133Z,8.10
2019-03-29T23:13:16.162Z,7.57
2019-03-29T23:15:46.477Z,8.90
2019-03-29T23:18:16.429Z,6.33
2019-03-29T23:20:46.726Z,5.90
2019-03-29T23:23:16.908Z,6.70
2019-03-29T23:25:47.553Z,6.17
2019-03-29T23:28:17.937Z,5.20
2019-03-29T23:30:48.053Z,5.60
2019-03-29T23:33:18.083Z,6.30
2019-03-29T23:35:48.181Z,12.03
2019-03-29T23:38:18.215Z,8.37
2019-03-29T23:40:48.838Z,12.70
2019-03-29T23:43:18.854Z,14.43
2019-03-29T23:45:48.908Z,38.07
2019-03-29T23:48:18.973Z,20.97
2019-03-29T23:50:49.045Z,20.10
2019-03-29T23:53:18.986Z,12.20
2019-03-29T23:55:48.975Z,11.77
2019-03-29T23:58:19.188Z,11.70
